Time;durP1;ratioP1;P1;durP2;ratioP2;P2;SDS_P1;SDS_P2;PMS_P1;PMS_P2;Temp;Humidity;BMP_temperature;BMP_pressure;BME280_temperature;BME280_humidity;BME280_pressure;Samples;Min_cycle;Max_cycle;Signal;HPM_P1;HPM_P2
2023/07/18 00:00:41;;;;;;;9.97;3.57;;;;;;;14.72;91.54;101962.84;5285062;28;20063;-68
2023/07/18 00:03:15;;;;;;;6.57;3.00;;;;;;;14.64;91.69;101962.06;5283462;28;20538;-68
2023/07/18 00:05:47;;;;;;;6.80;3.08;;;;;;;14.64;92.11;101954.19;5285070;28;20040;-68
2023/07/18 00:08:18;;;;;;;5.75;3.17;;;;;;;14.59;92.26;101959.44;5284996;28;20032;-67
2023/07/18 00:10:50;;;;;;;8.00;2.63;;;;;;;14.46;92.34;101960.44;5284908;28;20072;-67
2023/07/18 00:13:21;;;;;;;8.77;3.20;;;;;;;14.44;93.12;101968.38;5284869;28;20112;-68
2023/07/18 00:15:52;;;;;;;6.67;3.10;;;;;;;14.36;93.41;101965.81;5284810;28;20082;-68
2023/07/18 00:18:24;;;;;;;8.20;4.03;;;;;;;14.25;94.07;101972.00;5284714;28;20032;-68
2023/07/18 00:20:55;;;;;;;5.60;2.93;;;;;;;14.28;94.30;101970.25;5284397;28;20036;-66
2023/07/18 00:23:27;;;;;;;6.60;3.50;;;;;;;14.30;94.45;101975.50;5284597;28;20370;-68
2023/07/18 00:25:59;;;;;;;7.22;2.97;;;;;;;14.21;94.71;101972.03;5284243;28;20029;-68
2023/07/18 00:28:30;;;;;;;8.87;3.20;;;;;;;14.26;95.08;101961.50;5284220;28;20052;-68
2023/07/18 00:31:03;;;;;;;8.23;3.70;;;;;;;14.19;94.07;101976.44;5283784;28;20060;-68
2023/07/18 00:33:34;;;;;;;7.03;2.67;;;;;;;14.11;94.38;101975.63;5284015;28;20063;-68
2023/07/18 00:36:06;;;;;;;6.53;3.50;;;;;;;14.12;94.98;101971.25;5282587;28;20074;-68
2023/07/18 00:38:37;;;;;;;7.53;4.05;;;;;;;14.12;95.50;101974.78;5283090;28;20064;-68
2023/07/18 00:41:11;;;;;;;9.27;4.60;;;;;;;13.98;96.09;101967.00;5284274;28;20036;-68
2023/07/18 00:43:42;;;;;;;7.97;4.30;;;;;;;13.95;96.87;101963.53;5283034;28;20032;-66
2023/07/18 00:46:14;;;;;;;6.37;4.00;;;;;;;13.91;97.40;101964.44;5284166;28;20487;-67
2023/07/18 00:48:46;;;;;;;9.38;4.40;;;;;;;13.81;98.24;101961.91;5284077;28;20039;-67
2023/07/18 00:51:18;;;;;;;13.47;5.23;;;;;;;13.77;98.74;101960.19;5283958;28;20024;-67
2023/07/18 00:53:51;;;;;;;7.50;4.53;;;;;;;13.89;98.98;101956.59;5284080;28;20055;-67
2023/07/18 00:56:23;;;;;;;8.13;4.88;;;;;;;13.82;99.19;101961.00;5283531;28;20558;-67
2023/07/18 00:58:55;;;;;;;9.55;5.20;;;;;;;13.75;99.80;101950.56;5283909;28;20119;-66
2023/07/18 01:01:26;;;;;;;9.57;5.13;;;;;;;13.70;100.00;101947.13;5284175;28;20040;-67
2023/07/18 01:03:58;;;;;;;9.20;4.93;;;;;;;13.62;100.00;101947.16;5283843;28;20036;-66
2023/07/18 01:06:29;;;;;;;12.47;5.13;;;;;;;13.68;100.00;101944.50;5283862;28;20028;-67
2023/07/18 01:09:00;;;;;;;7.87;4.80;;;;;;;13.67;100.00;101950.66;5283874;28;20032;-68
2023/07/18 01:11:33;;;;;;;7.60;4.77;;;;;;;13.73;100.00;101953.19;5283341;28;20074;-68
2023/07/18 01:14:05;;;;;;;10.05;5.78;;;;;;;13.68;100.00;101947.13;5283392;28;20032;-68
2023/07/18 01:16:37;;;;;;;8.07;4.90;;;;;;;13.67;100.00;101950.66;5283653;28;20383;-68
2023/07/18 01:19:08;;;;;;;11.53;5.00;;;;;;;13.58;100.00;101948.09;5283804;28;20029;-67
2023/07/18 01:21:42;;;;;;;10.00;5.43;;;;;;;13.56;100.00;101947.25;5283549;28;20040;-67
2023/07/18 01:24:13;;;;;;;8.65;5.40;;;;;;;13.55;100.00;101940.25;5283241;28;20029;-66
2023/07/18 01:26:44;;;;;;;9.63;4.90;;;;;;;13.41;100.00;101932.47;5283159;28;20392;-66
2023/07/18 01:29:16;;;;;;;8.17;5.00;;;;;;;13.44;100.00;101937.69;5283564;28;20384;-67
2023/07/18 01:31:48;;;;;;;11.70;5.00;;;;;;;13.31;100.00;101940.38;5283346;28;20507;-66
2023/07/18 01:34:19;;;;;;;8.65;5.25;;;;;;;13.31;100.00;101942.09;5283348;28;20032;-67
2023/07/18 01:36:50;;;;;;;14.63;5.50;;;;;;;13.33;100.00;101937.78;5283472;28;20464;-67
2023/07/18 01:39:22;;;;;;;6.63;4.20;;;;;;;13.31;100.00;101932.50;5283142;28;20036;-66
2023/07/18 01:41:53;;;;;;;5.83;4.13;;;;;;;13.28;100.00;101931.63;5283398;28;20399;-67
2023/07/18 01:44:24;;;;;;;9.73;4.90;;;;;;;13.25;100.00;101923.78;5283098;28;20031;-67
2023/07/18 01:46:56;;;;;;;8.10;4.80;;;;;;;13.21;100.00;101928.19;5283350;28;20024;-67
2023/07/18 01:49:27;;;;;;;10.23;4.80;;;;;;;13.23;100.00;101920.31;5283367;28;20064;-67
2023/07/18 01:51:59;;;;;;;8.00;4.77;;;;;;;13.17;100.00;101923.88;5283340;28;20078;-67
2023/07/18 01:54:31;;;;;;;7.53;4.65;;;;;;;13.21;100.00;101919.47;5283308;28;20230;-67
2023/07/18 01:57:04;;;;;;;10.47;4.40;;;;;;;13.12;100.00;101926.50;5282698;28;20120;-67
2023/07/18 01:59:36;;;;;;;8.88;4.47;;;;;;;13.01;100.00;101916.94;5283164;28;20035;-67
2023/07/18 02:02:07;;;;;;;8.97;4.87;;;;;;;13.09;100.00;101913.44;5282143;28;20399;-67
2023/07/18 02:04:39;;;;;;;7.20;4.63;;;;;;;13.01;100.00;101912.59;5283243;28;20035;-68
2023/07/18 02:07:10;;;;;;;8.00;4.23;;;;;;;13.00;100.00;101907.38;5281929;28;20040;-68
2023/07/18 02:09:41;;;;;;;8.43;4.43;;;;;;;13.04;100.00;101909.06;5283227;28;20476;-68
2023/07/18 02:12:13;;;;;;;6.90;4.27;;;;;;;12.97;100.00;101910.00;5282902;28;20035;-67
2023/07/18 02:14:44;;;;;;;10.60;4.97;;;;;;;12.98;100.00;101907.38;5282210;28;20040;-68
2023/07/18 02:17:15;;;;;;;13.53;4.93;;;;;;;12.92;100.00;101897.78;5283137;28;20064;-68
2023/07/18 02:19:47;;;;;;;6.73;3.93;;;;;;;12.87;100.00;101910.03;5283050;28;20029;-68
2023/07/18 02:22:21;;;;;;;7.67;4.40;;;;;;;12.83;100.00;101904.81;5283044;28;20078;-67
2023/07/18 02:24:52;;;;;;;8.88;4.35;;;;;;;12.82;100.00;101909.19;5282954;28;20494;-67
2023/07/18 02:27:24;;;;;;;7.57;4.20;;;;;;;12.86;100.00;101902.19;5282724;28;20029;-67
2023/07/18 02:29:55;;;;;;;8.00;4.23;;;;;;;12.75;100.00;101903.13;5282979;28;20032;-67
2023/07/18 02:32:30;;;;;;;6.67;3.73;;;;;;;12.73;100.00;101899.59;5282844;28;20052;-66
2023/07/18 02:35:01;;;;;;;8.20;4.22;;;;;;;12.67;100.00;101904.00;5282821;28;20029;-66
2023/07/18 02:37:32;;;;;;;6.60;4.00;;;;;;;12.69;99.98;101903.13;5282895;28;20037;-67
2023/07/18 02:40:11;;;;;;;8.00;4.13;;;;;;;12.63;99.82;101900.53;5282605;28;20029;-67
2023/07/18 02:42:43;;;;;;;10.05;4.00;;;;;;;12.64;100.00;101902.28;5282769;28;20036;-67
2023/07/18 02:45:15;;;;;;;7.07;3.75;;;;;;;12.57;100.00;101906.66;5282493;28;20028;-67
2023/07/18 02:47:46;;;;;;;9.30;4.00;;;;;;;12.46;100.00;101904.94;5282971;28;20375;-68
2023/07/18 02:50:17;;;;;;;10.47;4.73;;;;;;;12.44;100.00;101909.31;5282809;28;20032;-68
2023/07/18 02:52:49;;;;;;;8.67;3.90;;;;;;;12.47;100.00;101894.47;5282702;28;20037;-68
2023/07/18 02:55:20;;;;;;;9.43;3.60;;;;;;;12.37;99.95;101898.00;5284158;28;20584;-68
2023/07/18 02:57:53;;;;;;;6.23;4.00;;;;;;;12.36;100.00;101901.47;5285955;28;20153;-68
2023/07/18 03:00:25;;;;;;;7.88;3.83;;;;;;;12.38;99.98;101905.84;5285996;28;20037;-68
2023/07/18 03:02:57;;;;;;;6.32;3.70;;;;;;;12.32;99.66;101903.25;5286271;28;20044;-68
2023/07/18 03:05:29;;;;;;;5.63;3.40;;;;;;;12.35;99.78;101903.22;5286589;28;20033;-68
2023/07/18 03:08:00;;;;;;;10.32;3.88;;;;;;;12.32;99.20;101900.63;5286138;28;20082;-68
2023/07/18 03:10:31;;;;;;;5.93;3.17;;;;;;;12.34;99.36;101898.00;5286188;28;20033;-68
2023/07/18 03:13:03;;;;;;;10.00;4.00;;;;;;;12.33;98.71;101889.31;5284733;28;20031;-67
2023/07/18 03:15:34;;;;;;;4.80;3.37;;;;;;;12.42;98.50;101898.00;5286028;28;20032;-67
2023/07/18 03:18:06;;;;;;;8.60;3.87;;;;;;;12.32;98.22;101897.16;5285643;28;20089;-67
2023/07/18 03:20:41;;;;;;;5.30;3.30;;;;;;;12.33;97.97;101902.38;5285990;28;20384;-66
2023/07/18 03:23:12;;;;;;;6.68;3.60;;;;;;;12.31;97.57;101901.47;5285990;28;20029;-67
2023/07/18 03:25:43;;;;;;;7.27;3.67;;;;;;;12.32;97.76;101897.16;5285421;28;20031;-67
2023/07/18 03:28:15;;;;;;;6.20;3.00;;;;;;;12.19;97.69;101897.16;5284543;28;20040;-67
2023/07/18 03:30:46;;;;;;;8.00;3.70;;;;;;;12.21;97.73;101900.63;5284276;28;20033;-67
2023/07/18 03:33:18;;;;;;;4.00;2.70;;;;;;;12.20;98.50;101898.03;5284578;28;20033;-67
2023/07/18 03:35:49;;;;;;;5.30;2.80;;;;;;;12.10;98.31;101894.56;5285759;28;20054;-67
2023/07/18 03:38:21;;;;;;;10.18;3.95;;;;;;;12.11;98.08;101893.69;5285667;28;20025;-67
2023/07/18 03:40:53;;;;;;;7.67;3.30;;;;;;;12.01;98.14;101889.31;5285288;28;20059;-68
2023/07/18 03:43:25;;;;;;;7.18;3.42;;;;;;;12.03;98.11;101901.53;5285183;28;20028;-68
2023/07/18 03:45:56;;;;;;;7.20;3.55;;;;;;;12.02;98.88;101897.16;5285492;28;20036;-67
2023/07/18 03:48:28;;;;;;;7.97;3.60;;;;;;;12.09;98.41;101899.78;5285513;28;20064;-68
2023/07/18 03:51:04;;;;;;;5.60;3.53;;;;;;;12.04;97.86;101900.66;5285300;28;20025;-68
2023/07/18 03:53:36;;;;;;;6.90;3.10;;;;;;;12.08;97.55;101892.84;5285350;28;20079;-68
2023/07/18 03:56:07;;;;;;;10.60;4.10;;;;;;;12.05;97.22;101898.91;5284794;28;20056;-68
2023/07/18 03:58:39;;;;;;;8.37;3.40;;;;;;;11.99;97.30;101897.19;5284938;28;20029;-68
2023/07/18 04:01:10;;;;;;;9.93;3.33;;;;;;;12.02;97.14;101901.53;5285162;28;20445;-68
2023/07/18 04:03:42;;;;;;;12.67;3.63;;;;;;;12.05;96.93;101896.31;5285179;28;20161;-68
2023/07/18 04:06:13;;;;;;;8.13;2.87;;;;;;;12.04;96.98;101894.56;5284996;28;20119;-68
2023/07/18 04:08:44;;;;;;;5.73;2.70;;;;;;;12.09;96.74;101890.22;5284768;28;20056;-68
2023/07/18 04:11:16;;;;;;;7.33;3.20;;;;;;;12.02;96.63;101883.25;5284881;28;20032;-68
2023/07/18 04:13:48;;;;;;;6.90;2.80;;;;;;;12.01;96.56;101876.25;5285072;28;20056;-68
2023/07/18 04:16:19;;;;;;;9.83;4.77;;;;;;;12.00;96.75;101879.75;5284864;28;20437;-68
2023/07/18 04:18:50;;;;;;;6.70;3.30;;;;;;;11.95;97.12;101874.53;5285254;28;20051;-68
2023/07/18 04:21:22;;;;;;;7.30;3.50;;;;;;;11.90;97.67;101873.66;5284690;28;20036;-69
2023/07/18 04:23:53;;;;;;;5.93;2.97;;;;;;;11.89;97.30;101865.81;5284778;28;20118;-70
2023/07/18 04:26:25;;;;;;;10.53;4.10;;;;;;;11.91;98.13;101864.06;5284215;28;20040;-70
2023/07/18 04:28:56;;;;;;;6.70;3.50;;;;;;;11.88;98.01;101859.69;5284523;28;20047;-69
2023/07/18 04:31:27;;;;;;;7.53;3.37;;;;;;;11.81;98.40;101858.84;5284542;28;20052;-69
2023/07/18 04:33:59;;;;;;;7.80;3.20;;;;;;;11.89;98.09;101869.28;5284497;28;20112;-69
2023/07/18 04:36:30;;;;;;;6.93;3.37;;;;;;;11.87;97.90;101871.03;5284104;28;20040;-69
2023/07/18 04:39:02;;;;;;;6.17;3.13;;;;;;;11.93;97.64;101872.78;5284455;28;20395;-69
2023/07/18 04:41:33;;;;;;;6.57;3.07;;;;;;;11.88;98.04;101874.50;5284625;28;20045;-69
2023/07/18 04:44:04;;;;;;;6.77;3.00;;;;;;;11.92;97.79;101876.28;5284251;28;20035;-69
2023/07/18 04:46:36;;;;;;;4.70;3.10;;;;;;;11.96;97.72;101876.28;5283933;28;20025;-69
2023/07/18 04:49:07;;;;;;;6.80;3.67;;;;;;;12.00;97.25;101866.69;5284265;28;20059;-69
2023/07/18 04:51:39;;;;;;;5.70;3.37;;;;;;;12.11;96.83;101867.56;5284029;28;20040;-69
2023/07/18 04:54:10;;;;;;;10.50;3.30;;;;;;;12.21;95.83;101876.25;5283786;28;20111;-69
2023/07/18 04:56:41;;;;;;;6.50;4.03;;;;;;;12.31;95.12;101871.88;5283318;28;20029;-69
2023/07/18 04:59:13;;;;;;;6.00;3.03;;;;;;;12.37;94.26;101877.09;5283704;28;20051;-70
2023/07/18 05:01:44;;;;;;;10.67;3.50;;;;;;;12.40;94.31;101862.25;5283966;28;20032;-70
2023/07/18 05:04:16;;;;;;;9.07;3.07;;;;;;;12.46;93.91;101866.59;5283617;28;20039;-70
2023/07/18 05:06:48;;;;;;;10.70;3.10;;;;;;;12.52;93.97;101858.72;5283764;28;20020;-68
2023/07/18 05:09:19;;;;;;;6.80;3.03;;;;;;;12.58;93.08;101858.69;5283894;28;20049;-69
2023/07/18 05:11:51;;;;;;;4.73;3.00;;;;;;;12.66;92.21;101863.91;5283722;28;20040;-68
2023/07/18 05:14:22;;;;;;;8.13;2.97;;;;;;;12.78;92.57;101870.81;5283444;28;20448;-69
2023/07/18 05:16:54;;;;;;;10.10;3.00;;;;;;;12.85;92.03;101869.94;5283707;28;20024;-68
2023/07/18 05:19:25;;;;;;;8.47;2.93;;;;;;;12.91;91.18;101869.91;5283125;28;20085;-69
2023/07/18 05:21:56;;;;;;;11.03;2.73;;;;;;;12.98;90.87;101873.34;5283959;28;20048;-68
2023/07/18 05:24:28;;;;;;;6.07;3.07;;;;;;;13.07;90.73;101867.19;5282437;28;20107;-69
2023/07/18 05:26:59;;;;;;;8.90;3.23;;;;;;;13.09;90.52;101866.31;5283232;28;20082;-69
2023/07/18 05:29:30;;;;;;;11.33;3.60;;;;;;;13.11;91.38;101876.75;5283119;28;20491;-69
2023/07/18 05:32:02;;;;;;;8.90;3.10;;;;;;;13.18;90.23;101881.06;5283454;28;20090;-69
2023/07/18 05:34:33;;;;;;;11.90;3.03;;;;;;;13.23;89.69;101870.56;5283558;28;20463;-69
2023/07/18 05:37:05;;;;;;;8.17;2.73;;;;;;;13.28;89.04;101871.41;5283511;28;20489;-69
2023/07/18 05:39:36;;;;;;;9.70;3.33;;;;;;;13.35;88.74;101873.16;5283441;28;20055;-68
2023/07/18 05:42:07;;;;;;;10.67;3.10;;;;;;;13.39;88.66;101867.00;5283530;28;20029;-68
2023/07/18 05:44:39;;;;;;;6.83;3.00;;;;;;;13.46;88.77;101871.31;5282209;28;20460;-69
2023/07/18 05:47:10;;;;;;;9.90;3.23;;;;;;;13.54;88.67;101875.63;5283408;28;20097;-68
2023/07/18 05:49:42;;;;;;;7.60;3.37;;;;;;;13.59;88.45;101876.47;5283323;28;20060;-69
2023/07/18 05:52:14;;;;;;;8.50;3.90;;;;;;;13.63;88.28;101876.41;5283085;28;20420;-68
2023/07/18 05:54:45;;;;;;;7.90;2.80;;;;;;;13.70;87.67;101882.50;5283210;28;20071;-69
2023/07/18 05:57:16;;;;;;;7.57;3.10;;;;;;;13.78;87.19;101871.94;5282894;28;20029;-70
2023/07/18 05:59:48;;;;;;;7.17;3.20;;;;;;;13.88;86.94;101880.59;5283257;28;20032;-69
2023/07/18 06:02:21;;;;;;;7.13;2.90;;;;;;;13.92;87.29;101887.56;5283234;28;20483;-70
2023/07/18 06:04:53;;;;;;;9.00;3.00;;;;;;;14.00;87.08;101889.19;5283083;28;20090;-69
2023/07/18 06:07:24;;;;;;;6.87;3.07;;;;;;;14.11;86.84;101891.72;5283222;28;20037;-69
2023/07/18 06:09:55;;;;;;;11.17;3.63;;;;;;;14.20;86.11;101889.03;5283210;28;20341;-69
2023/07/18 06:12:27;;;;;;;6.90;3.50;;;;;;;14.27;86.17;101883.72;5281792;28;20044;-69
2023/07/18 06:14:58;;;;;;;9.83;3.20;;;;;;;14.39;85.75;101880.94;5282021;28;20104;-69
2023/07/18 06:17:29;;;;;;;8.47;3.33;;;;;;;14.46;85.80;101873.88;5282840;28;20495;-69
2023/07/18 06:20:03;;;;;;;7.40;3.20;;;;;;;14.53;85.01;101884.28;5281920;28;20094;-69
2023/07/18 06:22:34;;;;;;;9.95;3.45;;;;;;;14.61;83.26;101886.84;5283036;28;20083;-70
2023/07/18 06:25:06;;;;;;;6.73;2.63;;;;;;;14.64;82.85;101894.69;5282968;28;20468;-69
2023/07/18 06:27:37;;;;;;;7.72;2.92;;;;;;;14.72;82.65;101884.09;5281222;28;20443;-68
2023/07/18 06:30:09;;;;;;;7.27;3.23;;;;;;;14.87;82.22;101881.28;5282760;28;20052;-69
2023/07/18 06:32:40;;;;;;;6.87;2.77;;;;;;;14.94;82.32;101879.41;5286304;28;20049;-68
2023/07/18 06:35:12;;;;;;;7.03;3.00;;;;;;;15.06;81.62;101886.28;5286715;28;20480;-68
2023/07/18 06:37:44;;;;;;;8.90;2.80;;;;;;;15.16;80.86;101879.16;5285483;28;20028;-69
2023/07/18 06:40:15;;;;;;;7.50;2.70;;;;;;;15.21;79.67;101888.69;5286689;28;20055;-69
2023/07/18 06:42:46;;;;;;;6.13;2.50;;;;;;;15.27;78.24;101888.59;5286729;28;20037;-69
2023/07/18 06:45:18;;;;;;;8.47;2.60;;;;;;;15.39;79.35;101882.31;5286638;28;20021;-69
2023/07/18 06:47:49;;;;;;;11.93;4.33;;;;;;;15.45;78.19;101882.19;5286446;28;20037;-68
2023/07/18 06:50:21;;;;;;;5.03;2.50;;;;;;;15.54;77.60;101881.19;5286339;28;20063;-69
2023/07/18 06:52:52;;;;;;;6.57;2.20;;;;;;;15.65;76.58;101881.03;5286092;28;20503;-69
2023/07/18 06:55:23;;;;;;;6.33;2.67;;;;;;;15.76;76.56;101878.19;5286472;28;20029;-69
2023/07/18 06:57:55;;;;;;;4.57;2.10;;;;;;;15.86;76.05;101877.19;5285965;28;20089;-69
2023/07/18 07:00:26;;;;;;;3.43;2.07;;;;;;;15.98;75.02;101871.69;5286295;28;20044;-69
2023/07/18 07:02:58;;;;;;;6.77;2.33;;;;;;;15.97;74.02;101867.34;5286288;28;20067;-69
2023/07/18 07:05:29;;;;;;;5.60;2.17;;;;;;;16.10;73.65;101870.63;5286239;28;20263;-69
2023/07/18 07:08:00;;;;;;;5.87;2.47;;;;;;;16.21;73.03;101873.03;5286158;28;20506;-69
2023/07/18 07:10:33;;;;;;;6.03;2.60;;;;;;;16.29;72.88;101881.66;5285835;28;20033;-69
2023/07/18 07:13:04;;;;;;;6.82;1.88;;;;;;;16.39;71.30;101880.59;5285944;28;20029;-68
2023/07/18 07:15:36;;;;;;;6.00;1.93;;;;;;;16.52;72.06;101881.22;5284726;28;20028;-69
2023/07/18 07:18:07;;;;;;;7.23;2.20;;;;;;;16.61;72.77;101874.88;5285670;28;20033;-69
2023/07/18 07:20:39;;;;;;;6.27;2.00;;;;;;;16.69;69.90;101878.22;5285901;28;20271;-71
2023/07/18 07:23:10;;;;;;;4.30;1.67;;;;;;;16.81;68.18;101886.75;5286093;28;20033;-70
2023/07/18 07:25:42;;;;;;;4.87;1.67;;;;;;;16.77;66.76;101881.56;5285851;28;20058;-70
2023/07/18 07:28:14;;;;;;;5.05;2.08;;;;;;;16.80;66.89;101885.91;5285451;28;20111;-69
2023/07/18 07:30:45;;;;;;;5.97;2.13;;;;;;;16.90;68.32;101879.56;5285422;28;20119;-69
2023/07/18 07:33:17;;;;;;;4.63;1.90;;;;;;;17.02;68.17;101875.81;5285162;28;20048;-69
2023/07/18 07:35:48;;;;;;;6.63;2.70;;;;;;;17.08;68.05;101877.41;5284391;28;20081;-69
2023/07/18 07:38:19;;;;;;;4.80;3.00;;;;;;;17.10;67.79;101881.78;5285615;28;20052;-69
2023/07/18 07:40:51;;;;;;;7.20;2.13;;;;;;;17.17;67.78;101877.22;5285154;28;20036;-69
2023/07/18 07:43:22;;;;;;;4.33;1.87;;;;;;;17.26;67.17;101878.78;5284370;28;20064;-69
2023/07/18 07:45:53;;;;;;;6.33;2.67;;;;;;;17.38;67.55;101873.22;5285511;28;20029;-69
2023/07/18 07:48:25;;;;;;;6.30;2.03;;;;;;;17.51;66.92;101876.41;5285420;28;20098;-69
2023/07/18 07:51:03;;;;;;;6.77;2.10;;;;;;;17.67;66.15;101882.19;5285296;28;20085;-70
2023/07/18 07:53:35;;;;;;;4.43;1.85;;;;;;;17.89;65.02;101872.00;5285266;28;20086;-69
2023/07/18 07:56:06;;;;;;;4.37;1.97;;;;;;;17.85;63.60;101871.19;5285242;28;20033;-69
2023/07/18 07:58:37;;;;;;;5.97;2.23;;;;;;;17.90;61.17;101881.63;5285318;28;20024;-69
2023/07/18 08:01:10;;;;;;;6.53;2.37;;;;;;;17.85;61.90;101875.56;5285187;28;20036;-68
2023/07/18 08:03:41;;;;;;;4.20;2.05;;;;;;;18.04;63.30;101878.63;5285110;28;20040;-69
2023/07/18 08:06:13;;;;;;;7.00;2.20;;;;;;;18.03;62.23;101871.63;5285042;28;20025;-69
2023/07/18 08:08:44;;;;;;;2.87;1.50;;;;;;;18.09;57.75;101876.72;5285047;28;20111;-68
2023/07/18 08:11:15;;;;;;;4.37;1.60;;;;;;;18.25;58.73;101868.41;5284837;28;20032;-69
2023/07/18 08:13:47;;;;;;;3.53;1.63;;;;;;;18.41;58.50;101859.16;5284957;28;20032;-69
2023/07/18 08:16:18;;;;;;;5.67;1.97;;;;;;;18.62;57.78;101857.66;5284789;28;20039;-69
2023/07/18 08:18:49;;;;;;;7.43;2.03;;;;;;;18.79;55.59;101854.53;5284879;28;20115;-69
2023/07/18 08:21:21;;;;;;;6.67;1.67;;;;;;;18.89;54.42;101871.00;5284712;28;20044;-68
2023/07/18 08:23:52;;;;;;;3.60;1.17;;;;;;;18.84;55.01;101863.22;5284618;28;20029;-69
2023/07/18 08:26:24;;;;;;;7.27;1.70;;;;;;;18.94;54.63;101863.78;5283903;28;20037;-69
2023/07/18 08:28:55;;;;;;;2.40;1.10;;;;;;;18.94;52.34;101859.34;5283358;28;20178;-69
2023/07/18 08:31:26;;;;;;;3.73;1.10;;;;;;;19.01;52.77;101857.38;5284291;28;20231;-68
2023/07/18 08:33:58;;;;;;;3.43;1.20;;;;;;;19.14;52.66;101855.22;5284538;28;20162;-69
2023/07/18 08:36:31;;;;;;;3.20;1.25;;;;;;;19.22;51.64;101853.19;5284350;28;20043;-69
2023/07/18 08:39:02;;;;;;;;;;;;;;;19.42;53.58;101852.56;5284704;28;20032;-69
2023/07/18 08:41:34;;;;;;;2.45;1.40;;;;;;;19.31;49.58;101846.78;5284402;28;20054;-69
2023/07/18 08:44:07;;;;;;;6.53;2.65;;;;;;;19.23;49.46;101854.94;5284301;28;20032;-69
2023/07/18 08:46:42;;;;;;;3.05;1.33;;;;;;;19.51;49.05;101856.69;5284126;28;20388;-69
2023/07/18 08:49:16;;;;;;;2.85;1.10;;;;;;;19.61;49.08;101844.00;5283743;28;20025;-69
2023/07/18 08:51:48;;;;;;;2.65;1.30;;;;;;;19.73;48.89;101840.09;5283795;28;20468;-69
2023/07/18 08:54:19;;;;;;;3.30;1.20;;;;;;;19.77;47.40;101839.09;5283418;28;20074;-70
2023/07/18 08:56:51;;;;;;;6.43;1.73;;;;;;;19.77;47.96;101839.97;5283715;28;20037;-69
2023/07/18 08:59:23;;;;;;;2.77;1.40;;;;;;;19.90;49.59;101824.53;5283872;28;20040;-70
2023/07/18 09:01:54;;;;;;;1.58;1.02;;;;;;;20.00;48.27;101831.22;5283771;28;20543;-70
2023/07/18 09:04:25;;;;;;;2.97;1.23;;;;;;;19.89;47.54;101821.94;5283901;28;20115;-70
2023/07/18 09:07:02;;;;;;;3.23;1.13;;;;;;;20.15;48.81;101824.50;5284069;28;20468;-69
2023/07/18 09:09:34;;;;;;;4.65;1.95;;;;;;;20.29;46.84;101817.84;5283390;28;20422;-69
2023/07/18 09:12:06;;;;;;;4.00;1.50;;;;;;;20.28;46.13;101813.47;5284041;28;20028;-70
2023/07/18 09:14:37;;;;;;;2.63;1.10;;;;;;;20.45;45.93;101816.34;5283635;28;20029;-69
2023/07/18 09:17:08;;;;;;;2.20;1.10;;;;;;;21.01;46.04;101815.09;5283930;28;20113;-70
2023/07/18 09:19:48;;;;;;;1.60;0.90;;;;;;;21.06;44.34;101817.56;5282541;28;20033;-69
2023/07/18 09:22:19;;;;;;;2.58;1.00;;;;;;;21.15;41.86;101814.53;5283715;28;20407;-69
2023/07/18 09:24:51;;;;;;;1.63;0.97;;;;;;;21.35;42.17;101810.19;5282374;28;20035;-69
2023/07/18 09:27:22;;;;;;;4.73;1.27;;;;;;;21.29;42.40;101804.22;5283186;28;20044;-70
2023/07/18 09:29:54;;;;;;;5.43;1.17;;;;;;;21.10;42.57;101796.16;5282344;28;20150;-70
2023/07/18 09:32:26;;;;;;;4.05;1.00;;;;;;;21.19;42.03;101802.00;5283012;28;20049;-67
2023/07/18 09:34:59;;;;;;;2.37;1.10;;;;;;;21.38;42.72;101795.03;5283587;28;20032;-68
2023/07/18 09:37:41;;;;;;;1.88;0.90;;;;;;;21.27;42.73;101789.31;5283168;28;20066;-69
2023/07/18 09:40:15;;;;;;;5.70;1.10;;;;;;;21.63;42.49;101789.53;5283195;28;20032;-68
2023/07/18 09:42:49;;;;;;;2.92;1.25;;;;;;;22.03;42.86;101787.78;5283099;28;20045;-68
2023/07/18 09:45:22;;;;;;;3.78;1.15;;;;;;;22.02;41.73;101791.38;5283357;28;20033;-69
2023/07/18 09:47:53;;;;;;;2.22;1.23;;;;;;;21.46;41.74;101803.50;5283332;28;20138;-68
2023/07/18 09:50:26;;;;;;;3.90;1.37;;;;;;;21.51;41.87;101790.09;5283341;28;20050;-69
2023/07/18 09:52:59;;;;;;;3.83;1.40;;;;;;;21.70;42.76;101790.13;5283280;28;20526;-69
2023/07/18 09:55:34;;;;;;;2.80;1.02;;;;;;;21.66;41.93;101793.88;5283539;28;20037;-69
2023/07/18 09:58:07;;;;;;;3.35;1.38;;;;;;;21.72;43.25;101798.91;5282761;28;20039;-68
2023/07/18 10:00:41;;;;;;;3.28;1.27;;;;;;;21.80;42.18;101786.16;5283124;28;20028;-69
2023/07/18 10:03:19;;;;;;;3.75;1.60;;;;;;;22.10;42.28;101776.88;5283237;28;20076;-69
2023/07/18 10:05:50;;;;;;;3.40;1.27;;;;;;;23.16;42.75;101781.69;5287445;28;20040;-69
2023/07/18 10:08:22;;;;;;;3.20;1.27;;;;;;;23.84;37.89;101779.97;5287350;28;20029;-69
2023/07/18 10:11:04;;;;;;;2.30;0.93;;;;;;;24.72;37.96;101767.16;5287322;28;20479;-69
2023/07/18 10:13:52;;;;;;;1.42;0.90;;;;;;;25.61;37.06;101771.75;5286997;28;20422;-68
2023/07/18 10:16:26;;;;;;;2.97;1.58;;;;;;;25.62;35.94;101759.31;5287312;28;20478;-69
2023/07/18 10:18:58;;;;;;;2.88;1.17;;;;;;;26.98;34.51;101756.91;5287142;28;20056;-69
2023/07/18 10:21:32;;;;;;;2.00;1.13;;;;;;;26.50;32.77;101746.66;5286854;28;20072;-70
2023/07/18 10:24:23;;;;;;;2.60;1.20;;;;;;;26.36;34.28;101736.84;5286004;28;20048;-69
2023/07/18 10:26:58;;;;;;;3.25;1.38;;;;;;;26.04;35.27;101733.56;5286512;28;20082;-70
2023/07/18 10:29:31;;;;;;;3.40;1.08;;;;;;;25.39;35.09;101739.31;5286611;28;20025;-69
2023/07/18 10:32:04;;;;;;;2.03;1.00;;;;;;;24.96;35.82;101734.72;5286769;28;20048;-68
2023/07/18 10:34:39;;;;;;;2.05;0.90;;;;;;;24.51;35.17;101726.56;5286751;28;20388;-69
2023/07/18 10:37:11;;;;;;;4.35;1.17;;;;;;;24.28;37.23;101730.53;5286673;28;20045;-69
2023/07/18 10:39:48;;;;;;;3.70;1.40;;;;;;;24.92;35.98;101733.16;5286539;28;20048;-69
2023/07/18 10:42:24;;;;;;;2.63;1.13;;;;;;;26.71;36.02;101732.84;5286625;28;20040;-70
2023/07/18 10:45:06;;;;;;;1.88;1.10;;;;;;;28.29;32.13;101731.78;5286578;28;20036;-69
2023/07/18 10:47:38;;;;;;;5.35;1.33;;;;;;;28.30;30.46;101735.31;5286568;28;20070;-70
2023/07/18 10:50:09;;;;;;;;;;;;;;;29.53;30.44;101736.81;5286715;28;20067;-69
2023/07/18 10:52:41;;;;;;;3.37;1.27;;;;;;;29.47;29.00;101726.56;5286118;28;20372;-69
2023/07/18 10:55:15;;;;;;;;;;;;;;;30.45;30.73;101731.31;5286890;28;20123;-70
2023/07/18 10:57:46;;;;;;;5.63;1.50;;;;;;;29.32;30.50;101719.69;5285848;28;19923;-69
2023/07/18 11:00:18;;;;;;;;;;;;;;;31.06;29.72;101724.50;5286736;28;20032;-71
2023/07/18 11:02:49;;;;;;;1.77;1.10;;;;;;;30.34;29.63;101717.84;5286090;28;19965;-70
2023/07/18 11:05:24;;;;;;;;;;;;;;;31.74;28.03;101710.56;5286691;28;20051;-70
2023/07/18 11:07:56;;;;;;;2.13;1.30;;;;;;;30.52;26.94;101716.34;5285943;28;19915;-69
2023/07/18 11:10:27;;;;;;;;;;;;;;;32.97;27.27;101731.78;5286564;28;20472;-69
2023/07/18 11:12:58;;;;;;;3.13;1.50;;;;;;;32.20;24.47;101713.69;5286103;28;19912;-68
2023/07/18 11:15:29;;;;;;;;;;;;;;;33.44;25.94;101712.97;5285404;28;20119;-69
2023/07/18 11:18:01;;;;;;;4.00;1.40;;;;;;;31.02;25.92;101707.72;5286022;28;19940;-69
2023/07/18 11:20:32;;;;;;;3.80;1.70;;;;;;;31.16;26.40;101705.69;5285845;28;20032;-69
2023/07/18 11:23:04;;;;;;;2.92;1.38;;;;;;;32.00;24.20;101706.38;5285904;28;20036;-69
2023/07/18 11:25:36;;;;;;;6.10;1.60;;;;;;;31.60;25.04;101712.63;5285551;28;20032;-69
2023/07/18 11:28:07;;;;;;;4.60;1.50;;;;;;;32.08;24.96;101694.94;5285380;28;20036;-69
2023/07/18 11:30:38;;;;;;;5.75;1.40;;;;;;;32.39;25.39;101683.19;5285750;28;20028;-69
2023/07/18 11:33:13;;;;;;;6.55;1.83;;;;;;;32.54;25.96;101697.97;5285305;28;20049;-69
2023/07/18 11:35:48;;;;;;;7.47;1.50;;;;;;;31.70;24.12;101691.13;5285581;28;20032;-69
2023/07/18 11:38:23;;;;;;;5.18;1.55;;;;;;;30.79;25.02;101704.25;5285559;28;20379;-69
2023/07/18 11:40:54;;;;;;;4.30;1.50;;;;;;;30.18;27.14;101700.28;5285165;28;20036;-70
2023/07/18 11:43:29;;;;;;;4.03;1.58;;;;;;;29.68;26.94;101686.38;5285546;28;20388;-69
2023/07/18 11:46:01;;;;;;;3.97;1.23;;;;;;;31.18;24.93;101684.88;5285377;28;20036;-69